createdAt,value
2023-01-20T00:01:03.561Z,100591.22
2023-01-20T00:03:30.178Z,100590.38
2023-01-20T00:05:56.799Z,100593.19
2023-01-20T00:08:23.446Z,100595.66
2023-01-20T00:10:50.190Z,100599.94
2023-01-20T00:13:16.801Z,100594.50
2023-01-20T00:15:43.496Z,100604.72
2023-01-20T00:18:10.145Z,100608.00
2023-01-20T00:20:36.744Z,100607.50
2023-01-20T00:23:06.598Z,100609.78
2023-01-20T00:25:35.766Z,100606.78
2023-01-20T00:28:02.922Z,100598.66
2023-01-20T00:30:29.566Z,100610.72
2023-01-20T00:32:56.193Z,100604.44
2023-01-20T00:35:22.869Z,100608.91
2023-01-20T00:37:49.476Z,100613.34
2023-01-20T00:40:16.357Z,100618.03
2023-01-20T00:42:42.948Z,100618.81
2023-01-20T00:45:09.831Z,100624.31
2023-01-20T00:47:36.374Z,100627.31
2023-01-20T00:50:03.473Z,100629.28
2023-01-20T00:52:30.052Z,100625.19
2023-01-20T00:54:56.662Z,100623.06
2023-01-20T00:57:23.232Z,100629.38
2023-01-20T00:59:49.831Z,100633.84
2023-01-20T01:02:16.444Z,100637.66
2023-01-20T01:04:43.265Z,100634.34
2023-01-20T01:07:09.832Z,100640.81
2023-01-20T01:09:36.421Z,100636.34
2023-01-20T01:12:03.063Z,100644.13
2023-01-20T01:14:32.081Z,100644.13
2023-01-20T01:16:58.672Z,100643.94
2023-01-20T01:19:25.266Z,100646.22
2023-01-20T01:21:51.833Z,100642.41
2023-01-20T01:24:18.575Z,100650.84
2023-01-20T01:26:45.237Z,100651.28
2023-01-20T01:29:11.940Z,100654.59
2023-01-20T01:31:39.144Z,100662.00
2023-01-20T01:34:05.772Z,100664.47
2023-01-20T01:36:32.332Z,100673.88
2023-01-20T01:38:59.384Z,100671.22
2023-01-20T01:41:26.160Z,100674.88
2023-01-20T01:44:08.324Z,100679.19
2023-01-20T01:46:35.322Z,100677.53
2023-01-20T01:49:07.025Z,100672.41
2023-01-20T01:51:41.574Z,100682.34
2023-01-20T01:54:17.785Z,100690.47
2023-01-20T01:56:45.085Z,100685.53
2023-01-20T01:59:12.714Z,100692.00
2023-01-20T02:01:41.402Z,100692.16
2023-01-20T02:04:14.149Z,100699.63
2023-01-20T02:06:44.454Z,100701.63
2023-01-20T02:09:13.243Z,100700.97
2023-01-20T02:11:48.608Z,100705.59
2023-01-20T02:14:20.565Z,100710.25
2023-01-20T02:17:05.487Z,100711.06
2023-01-20T02:19:50.277Z,100713.72
2023-01-20T02:22:38.736Z,100716.34
2023-01-20T02:25:10.575Z,100723.31
2023-01-20T02:28:11.167Z,100723.97
2023-01-20T02:30:37.764Z,100728.91
2023-01-20T02:33:16.403Z,100737.31
2023-01-20T02:35:46.825Z,100738.78
2023-01-20T02:38:26.562Z,100745.56
2023-01-20T02:40:59.804Z,100741.72
2023-01-20T02:43:36.977Z,100755.63
2023-01-20T02:46:11.536Z,100754.63
2023-01-20T02:48:44.687Z,100758.91
2023-01-20T02:51:24.466Z,100758.91
2023-01-20T02:53:54.149Z,100765.03
2023-01-20T02:56:23.528Z,100772.97
2023-01-20T02:58:52.587Z,100770.34
2023-01-20T03:01:24.015Z,100775.97
2023-01-20T03:03:53.354Z,100777.97
2023-01-20T03:06:22.981Z,100781.63
2023-01-20T03:08:52.030Z,100782.59
2023-01-20T03:11:19.396Z,100782.78
2023-01-20T03:13:48.917Z,100778.66
2023-01-20T03:16:21.079Z,100779.66
2023-01-20T03:18:48.352Z,100786.13
2023-01-20T03:21:15.005Z,100789.59
2023-01-20T03:23:47.011Z,100787.13
2023-01-20T03:26:16.117Z,100793.41
2023-01-20T03:28:44.876Z,100795.06
2023-01-20T03:31:31.321Z,100794.06
2023-01-20T03:34:00.911Z,100799.19
2023-01-20T03:36:29.607Z,100799.00
2023-01-20T03:38:56.698Z,100814.72
2023-01-20T03:41:44.439Z,100810.06
2023-01-20T03:44:16.861Z,100807.25
2023-01-20T03:46:51.454Z,100814.19
2023-01-20T03:49:29.599Z,100812.22
2023-01-20T03:52:14.623Z,100814.66
2023-01-20T03:54:45.797Z,100818.16
2023-01-20T03:57:16.756Z,100814.50
2023-01-20T03:59:44.197Z,100821.63
2023-01-20T04:02:11.851Z,100814.66
2023-01-20T04:04:40.615Z,100822.44
2023-01-20T04:07:11.228Z,100829.56
2023-01-20T04:09:41.720Z,100828.72
2023-01-20T04:12:09.101Z,100838.47
2023-01-20T04:14:36.455Z,100835.38
2023-01-20T04:17:04.606Z,100845.16
2023-01-20T04:19:31.442Z,100844.47
2023-01-20T04:22:16.679Z,100842.16
2023-01-20T04:24:57.399Z,100844.00
2023-01-20T04:27:23.990Z,100849.28
2023-01-20T04:29:50.590Z,100855.38
2023-01-20T04:32:17.193Z,100853.75
2023-01-20T04:34:43.819Z,100852.09
2023-01-20T04:37:10.471Z,100848.78
2023-01-20T04:39:37.071Z,100858.41
2023-01-20T04:42:04.061Z,100860.88
2023-01-20T04:44:30.641Z,100865.16
2023-01-20T04:46:58.295Z,100867.66
2023-01-20T04:49:25.016Z,100874.75
2023-01-20T04:51:51.569Z,100873.59
2023-01-20T04:54:18.154Z,100878.03
2023-01-20T04:56:44.710Z,100883.31
2023-01-20T04:59:11.300Z,100890.28
2023-01-20T05:01:37.889Z,100884.00
2023-01-20T05:04:04.493Z,100890.94
2023-01-20T05:06:31.096Z,100887.47
2023-01-20T05:08:57.684Z,100894.59
2023-01-20T05:11:24.262Z,100890.28
2023-01-20T05:13:50.857Z,100892.78
2023-01-20T05:16:23.831Z,100902.34
2023-01-20T05:18:50.914Z,100902.53
2023-01-20T05:21:17.496Z,100910.47
2023-01-20T05:23:44.101Z,100919.41
2023-01-20T05:26:11.404Z,100923.03
2023-01-20T05:28:38.015Z,100920.56
2023-01-20T05:31:04.718Z,100924.19
2023-01-20T05:33:31.341Z,100919.91
2023-01-20T05:35:57.922Z,100925.19
2023-01-20T05:38:24.588Z,100931.31
2023-01-20T05:40:51.153Z,100926.03
2023-01-20T05:43:17.727Z,100932.13
2023-01-20T05:45:46.660Z,100935.44
2023-01-20T05:48:13.334Z,100942.56
2023-01-20T05:50:39.902Z,100940.75
2023-01-20T05:53:06.466Z,100946.03
2023-01-20T05:55:33.172Z,100950.16
2023-01-20T05:58:02.531Z,100957.94
2023-01-20T06:00:29.482Z,100954.44
2023-01-20T06:02:56.275Z,100963.22
2023-01-20T06:05:23.085Z,100967.69
2023-01-20T06:07:49.746Z,100980.91
2023-01-20T06:10:17.402Z,100984.72
2023-01-20T06:12:44.064Z,100989.19
2023-01-20T06:15:11.120Z,100989.19
2023-01-20T06:17:37.690Z,100992.81
2023-01-20T06:20:06.275Z,100997.47
2023-01-20T06:22:32.885Z,100996.63
2023-01-20T06:25:01.066Z,100995.16
2023-01-20T06:27:27.745Z,101010.88
2023-01-20T06:29:54.359Z,101008.38
2023-01-20T06:32:20.958Z,101013.69
2023-01-20T06:34:47.640Z,101017.31
2023-01-20T06:37:14.301Z,101019.13
2023-01-20T06:39:40.908Z,101022.78
2023-01-20T06:42:07.625Z,101023.63
2023-01-20T06:44:34.317Z,101026.91
2023-01-20T06:47:00.896Z,101048.75
2023-01-20T06:49:27.529Z,101047.75
2023-01-20T06:51:54.569Z,101047.59
2023-01-20T06:54:21.306Z,101048.25
2023-01-20T06:56:47.933Z,101049.06
2023-01-20T06:59:14.599Z,101045.44
2023-01-20T07:01:41.385Z,101055.69
2023-01-20T07:04:10.259Z,101053.69
2023-01-20T07:06:38.816Z,101053.69
2023-01-20T07:09:07.728Z,101072.91
2023-01-20T07:11:37.290Z,101065.13
2023-01-20T07:14:04.898Z,101069.56
2023-01-20T07:16:31.770Z,101076.66
2023-01-20T07:18:58.430Z,101076.88
2023-01-20T07:21:26.511Z,101081.47
2023-01-20T07:23:53.334Z,101086.13
2023-01-20T07:26:22.109Z,101093.22
2023-01-20T07:28:49.109Z,101086.28
2023-01-20T07:31:20.927Z,101097.03
2023-01-20T07:33:47.836Z,101108.63
2023-01-20T07:36:15.501Z,101093.91
2023-01-20T07:38:42.830Z,101110.44
2023-01-20T07:41:15.868Z,101106.28
2023-01-20T07:43:44.153Z,101111.59
2023-01-20T07:46:10.972Z,101116.88
2023-01-20T07:48:38.099Z,101112.59
2023-01-20T07:51:07.398Z,101117.56
2023-01-20T07:53:39.453Z,101121.84
2023-01-20T07:56:11.051Z,101120.84
2023-01-20T07:58:38.294Z,101109.28
2023-01-20T08:01:11.648Z,101120.38
2023-01-20T08:03:38.532Z,101127.97
2023-01-20T08:06:06.813Z,101126.16
2023-01-20T08:08:33.705Z,101140.88
2023-01-20T08:11:01.417Z,101141.72
2023-01-20T08:13:31.784Z,101138.06
2023-01-20T08:16:03.043Z,101138.88
2023-01-20T08:18:30.356Z,101146.81
2023-01-20T08:20:56.926Z,101147.81
2023-01-20T08:23:23.626Z,101153.28
2023-01-20T08:25:51.673Z,101158.72
2023-01-20T08:28:18.230Z,101161.72
2023-01-20T08:30:44.888Z,101167.16
2023-01-20T08:33:11.544Z,101169.97
2023-01-20T08:35:38.182Z,101171.97
2023-01-20T08:38:06.414Z,101173.13
2023-01-20T08:40:34.196Z,101180.06
2023-01-20T08:43:00.966Z,101186.53
2023-01-20T08:45:27.727Z,101187.50
2023-01-20T08:47:54.410Z,101190.31
2023-01-20T08:50:23.378Z,101185.69
2023-01-20T08:52:49.966Z,101190.97
2023-01-20T08:55:16.924Z,101196.09
2023-01-20T08:57:43.715Z,101198.75
2023-01-20T09:00:11.054Z,101202.06
2023-01-20T09:02:38.203Z,101201.91
2023-01-20T09:05:05.388Z,101205.38
2023-01-20T09:07:31.982Z,101205.88
2023-01-20T09:09:58.588Z,101224.09
2023-01-20T09:12:25.152Z,101221.44
2023-01-20T09:14:51.734Z,101228.88
2023-01-20T09:17:19.164Z,101227.06
2023-01-20T09:19:45.770Z,101229.56
2023-01-20T09:22:12.315Z,101237.50
2023-01-20T09:24:40.337Z,101248.09
2023-01-20T09:27:06.926Z,101249.88
2023-01-20T09:29:33.646Z,101261.47
2023-01-20T09:32:00.331Z,101263.47
2023-01-20T09:34:29.500Z,101264.59
2023-01-20T09:36:58.733Z,101263.94
2023-01-20T09:39:43.906Z,101264.09
2023-01-20T09:42:47.012Z,101269.72
2023-01-20T09:45:33.978Z,101266.56
2023-01-20T09:48:32.421Z,101271.19
2023-01-20T09:51:22.494Z,101269.53
2023-01-20T09:53:56.475Z,101279.44
2023-01-20T09:56:25.288Z,101280.28
2023-01-20T09:59:00.179Z,101278.44
2023-01-20T10:01:48.526Z,101274.00
2023-01-20T10:04:26.882Z,101275.50
2023-01-20T10:07:17.854Z,101282.44
2023-01-20T10:09:53.812Z,101280.63
2023-01-20T10:12:30.048Z,101284.78
2023-01-20T10:15:20.932Z,101291.56
2023-01-20T10:18:04.982Z,101280.97
2023-01-20T10:20:46.792Z,101285.97
2023-01-20T10:23:21.261Z,101293.91
2023-01-20T10:25:52.235Z,101289.25
2023-01-20T10:28:24.937Z,101290.25
2023-01-20T10:30:51.622Z,101295.53
2023-01-20T10:33:24.049Z,101291.25
2023-01-20T10:35:52.941Z,101294.72
2023-01-20T10:38:56.217Z,101290.56
2023-01-20T10:41:28.499Z,101297.00
2023-01-20T10:43:56.410Z,101299.00
2023-01-20T10:46:38.335Z,101300.16
2023-01-20T10:49:41.511Z,101305.59
2023-01-20T10:52:36.236Z,101306.75
2023-01-20T10:55:58.259Z,101299.13
2023-01-20T10:58:28.567Z,101305.41
2023-01-20T11:00:55.879Z,101298.63
2023-01-20T11:03:23.155Z,101303.06
2023-01-20T11:05:51.392Z,101303.22
2023-01-20T11:08:21.946Z,101306.38
2023-01-20T11:10:53.177Z,101307.06
2023-01-20T11:13:19.842Z,101309.56
2023-01-20T11:15:48.543Z,101315.19
2023-01-20T11:18:15.107Z,101315.69
2023-01-20T11:20:53.129Z,101312.75
2023-01-20T11:23:23.817Z,101317.53
2023-01-20T11:25:57.835Z,101316.41
2023-01-20T11:28:25.085Z,101309.97
2023-01-20T11:30:54.260Z,101315.91
2023-01-20T11:33:26.731Z,101315.06
2023-01-20T11:36:02.140Z,101316.59
2023-01-20T11:38:50.647Z,101313.09
2023-01-20T11:41:26.050Z,101317.91
2023-01-20T11:43:57.923Z,101323.19
2023-01-20T11:46:35.112Z,101327.00
2023-01-20T11:49:16.767Z,101330.59
2023-01-20T11:51:48.641Z,101330.94
2023-01-20T11:54:43.389Z,101338.22
2023-01-20T11:57:16.725Z,101332.41
2023-01-20T11:59:49.800Z,101335.22
2023-01-20T12:02:24.514Z,101342.50
2023-01-20T12:05:22.449Z,101347.25
2023-01-20T12:07:51.532Z,101350.06
2023-01-20T12:10:26.415Z,101360.84
2023-01-20T12:13:03.557Z,101358.34
2023-01-20T12:15:33.299Z,101360.13
2023-01-20T12:18:04.328Z,101368.78
2023-01-20T12:20:56.150Z,101383.66
2023-01-20T12:23:45.901Z,101372.91
2023-01-20T12:26:17.540Z,101384.66
2023-01-20T12:29:03.439Z,101374.91
2023-01-20T12:31:31.416Z,101380.56
2023-01-20T12:34:06.376Z,101384.69
2023-01-20T12:36:50.935Z,101379.09
2023-01-20T12:39:18.834Z,101391.19
2023-01-20T12:42:02.731Z,101391.84
2023-01-20T12:44:47.428Z,101390.72
2023-01-20T12:47:32.639Z,101392.84
2023-01-20T12:50:35.057Z,101401.63
2023-01-20T12:53:40.261Z,101406.41
2023-01-20T12:56:54.720Z,101411.84
2023-01-20T12:59:48.852Z,101408.38
2023-01-20T13:02:37.644Z,101411.31
2023-01-20T13:05:14.911Z,101413.31
2023-01-20T13:08:03.291Z,101423.22
2023-01-20T13:10:42.571Z,101420.75
2023-01-20T13:13:18.277Z,101426.19
2023-01-20T13:15:58.730Z,101424.69
2023-01-20T13:18:34.908Z,101419.56
2023-01-20T13:21:01.451Z,101425.66
2023-01-20T13:23:31.609Z,101418.06
2023-01-20T13:25:58.973Z,101412.75
2023-01-20T13:28:28.685Z,101420.53
2023-01-20T13:30:57.571Z,101428.31
2023-01-20T13:33:41.420Z,101437.78
2023-01-20T13:36:21.234Z,101433.13
2023-01-20T13:38:49.752Z,101444.38
2023-01-20T13:41:55.205Z,101442.44
2023-01-20T13:44:39.916Z,101441.13
2023-01-20T13:47:09.009Z,101446.13
2023-01-20T13:49:44.371Z,101449.56
2023-01-20T13:52:12.074Z,101460.00
2023-01-20T13:57:36.644Z,101462.66
2023-01-20T14:00:06.171Z,101470.75
2023-01-20T14:02:35.536Z,101470.75
2023-01-20T14:05:02.306Z,101467.44
2023-01-20T14:07:30.642Z,101473.88
2023-01-20T14:09:59.346Z,101478.34
2023-01-20T14:12:26.364Z,101476.97
2023-01-20T14:14:53.530Z,101486.56
2023-01-20T14:17:23.108Z,101483.41
2023-01-20T14:19:51.901Z,101488.22
2023-01-20T14:22:26.598Z,101497.09
2023-01-20T14:24:57.272Z,101493.94
2023-01-20T14:27:29.580Z,101502.59
2023-01-20T14:29:59.689Z,101508.03
2023-01-20T14:32:32.685Z,101510.53
2023-01-20T14:34:59.706Z,101514.97
2023-01-20T14:37:31.945Z,101515.81
2023-01-20T14:40:08.242Z,101515.63
2023-01-20T14:42:34.880Z,101523.56
2023-01-20T14:45:01.483Z,101526.06
2023-01-20T14:47:29.143Z,101525.78
2023-01-20T14:49:55.876Z,101525.78
2023-01-20T14:52:25.250Z,101533.41
2023-01-20T14:54:53.036Z,101526.13
2023-01-20T14:57:30.878Z,101532.13
2023-01-20T15:00:09.717Z,101539.88
2023-01-20T15:02:36.975Z,101547.66
2023-01-20T15:05:20.184Z,101545.84
2023-01-20T15:07:46.763Z,101547.66
2023-01-20T15:10:16.348Z,101560.91
2023-01-20T15:12:45.907Z,101560.91
2023-01-20T15:15:20.426Z,101565.53
2023-01-20T15:18:08.958Z,101572.78
2023-01-20T15:20:38.357Z,101578.41
2023-01-20T15:23:22.793Z,101588.28
2023-01-20T15:25:50.975Z,101588.44
2023-01-20T15:28:22.849Z,101600.88
2023-01-20T15:30:50.042Z,101602.16
2023-01-20T15:33:16.686Z,101602.97
2023-01-20T15:35:43.230Z,101603.97
2023-01-20T15:38:12.195Z,101607.44
2023-01-20T15:40:41.641Z,101610.25
2023-01-20T15:43:18.385Z,101608.25
2023-01-20T15:45:45.734Z,101612.75
2023-01-20T15:48:21.207Z,101609.09
2023-01-20T15:50:48.801Z,101613.41
2023-01-20T15:53:15.781Z,101621.19
2023-01-20T15:55:48.499Z,101619.41
2023-01-20T15:58:22.363Z,101622.84
2023-01-20T16:00:49.219Z,101624.53
2023-01-20T16:03:15.811Z,101634.94
2023-01-20T16:05:42.377Z,101634.94
2023-01-20T16:08:16.482Z,101636.63
2023-01-20T16:10:43.296Z,101634.94
2023-01-20T16:13:10.373Z,101644.72
2023-01-20T16:15:37.771Z,101649.88
2023-01-20T16:18:05.839Z,101649.16
2023-01-20T16:20:34.912Z,101648.38
2023-01-20T16:23:01.575Z,101651.97
2023-01-20T16:25:29.136Z,101655.59
2023-01-20T16:27:56.186Z,101653.25
2023-01-20T16:30:23.412Z,101661.19
2023-01-20T16:32:50.350Z,101661.50
2023-01-20T16:35:18.241Z,101671.25
2023-01-20T16:37:46.555Z,101667.78
2023-01-20T16:40:15.792Z,101666.94
2023-01-20T16:42:42.612Z,101681.84
2023-01-20T16:45:21.395Z,101683.50
2023-01-20T16:47:47.947Z,101685.19
2023-01-20T16:50:14.841Z,101685.00
2023-01-20T16:52:41.589Z,101684.88
2023-01-20T16:55:08.678Z,101677.75
2023-01-20T16:57:35.242Z,101691.53
2023-01-20T17:00:01.971Z,101687.88
2023-01-20T17:02:28.561Z,101694.88
2023-01-20T17:04:55.132Z,101696.53
2023-01-20T17:07:21.908Z,101693.88
2023-01-20T17:09:48.523Z,101697.50
2023-01-20T17:12:16.747Z,101699.31
2023-01-20T17:14:43.287Z,101708.75
2023-01-20T17:17:09.872Z,101713.41
2023-01-20T17:19:37.205Z,101714.53
2023-01-20T17:22:03.790Z,101715.34
2023-01-20T17:24:30.533Z,101725.94
2023-01-20T17:26:57.083Z,101732.22
2023-01-20T17:29:23.669Z,101730.56
2023-01-20T17:31:50.560Z,101730.56
2023-01-20T17:34:17.150Z,101734.34
2023-01-20T17:36:43.723Z,101737.94
2023-01-20T17:39:10.665Z,101742.72
2023-01-20T17:41:37.244Z,101741.72
2023-01-20T17:44:05.647Z,101744.53
2023-01-20T17:46:32.372Z,101751.63
2023-01-20T17:49:04.620Z,101749.00
2023-01-20T17:51:31.207Z,101752.47
2023-01-20T17:53:58.732Z,101758.44
2023-01-20T17:56:26.080Z,101765.25
2023-01-20T17:58:52.917Z,101762.47
2023-01-20T18:01:25.614Z,101768.59
2023-01-20T18:03:53.902Z,101764.81
2023-01-20T18:06:21.885Z,101771.78
2023-01-20T18:08:53.675Z,101776.06
2023-01-20T18:11:21.875Z,101776.91
2023-01-20T18:13:50.212Z,101781.38
2023-01-20T18:16:18.801Z,101774.41
2023-01-20T18:18:46.864Z,101780.69
2023-01-20T18:21:15.894Z,101786.00
2023-01-20T18:23:42.891Z,101782.50
2023-01-20T18:26:11.034Z,101782.66
2023-01-20T18:28:38.029Z,101789.78
2023-01-20T18:31:10.515Z,101795.22
2023-01-20T18:33:48.202Z,101800.34
2023-01-20T18:36:17.857Z,101789.22
2023-01-20T18:38:58.918Z,101798.81
2023-01-20T18:41:27.007Z,101799.94
2023-01-20T18:43:53.790Z,101803.44
2023-01-20T18:46:20.466Z,101811.38
2023-01-20T18:48:47.421Z,101819.44
2023-01-20T18:51:15.328Z,101810.53
2023-01-20T18:53:43.419Z,101825.44
2023-01-20T18:56:11.941Z,101828.09
2023-01-20T18:58:39.604Z,101822.81
2023-01-20T19:01:09.168Z,101828.09
2023-01-20T19:03:36.768Z,101829.63
2023-01-20T19:06:11.419Z,101829.31
2023-01-20T19:08:39.101Z,101835.44
2023-01-20T19:11:08.918Z,101843.09
2023-01-20T19:13:35.650Z,101842.25
2023-01-20T19:16:02.515Z,101842.94
2023-01-20T19:18:29.138Z,101841.13
2023-01-20T19:20:55.887Z,101835.00
2023-01-20T19:23:22.480Z,101844.75
2023-01-20T19:25:59.569Z,101842.25
2023-01-20T19:28:26.125Z,101845.03
2023-01-20T19:30:52.772Z,101850.34
2023-01-20T19:33:19.374Z,101854.94
2023-01-20T19:35:46.008Z,101854.25
2023-01-20T19:38:13.209Z,101855.25
2023-01-20T19:40:40.968Z,101853.56
2023-01-20T19:43:07.530Z,101861.50
2023-01-20T19:45:45.298Z,101858.03
2023-01-20T19:48:12.446Z,101860.81
2023-01-20T19:50:39.057Z,101864.31
2023-01-20T19:53:06.551Z,101867.09
2023-01-20T19:55:33.113Z,101878.53
2023-01-20T19:57:59.699Z,101876.69
2023-01-20T20:00:26.286Z,101877.53
2023-01-20T20:02:54.373Z,101882.69
2023-01-20T20:05:20.958Z,101878.38
2023-01-20T20:07:47.564Z,101884.63
2023-01-20T20:10:17.537Z,101881.84
2023-01-20T20:12:44.308Z,101893.13
2023-01-20T20:15:11.225Z,101882.53
2023-01-20T20:17:37.957Z,101893.13
2023-01-20T20:20:05.390Z,101896.31
2023-01-20T20:22:31.957Z,101888.38
2023-01-20T20:24:58.491Z,101894.50
2023-01-20T20:27:25.065Z,101894.50
2023-01-20T20:29:51.660Z,101899.81
2023-01-20T20:32:18.207Z,101912.06
2023-01-20T20:34:44.844Z,101912.19
2023-01-20T20:37:11.386Z,101914.00
2023-01-20T20:39:37.941Z,101913.31
2023-01-20T20:42:04.683Z,101922.25
2023-01-20T20:44:31.234Z,101930.31
2023-01-20T20:46:57.971Z,101926.97
2023-01-20T20:49:24.509Z,101942.84
2023-01-20T20:51:51.119Z,101941.91
2023-01-20T20:54:17.833Z,101944.56
2023-01-20T20:56:44.744Z,101945.69
2023-01-20T20:59:11.306Z,101959.72
2023-01-20T21:01:38.070Z,101951.78
2023-01-20T21:04:05.759Z,101963.88
2023-01-20T21:06:32.759Z,101959.44
2023-01-20T21:08:59.652Z,101962.09
2023-01-20T21:11:26.462Z,101959.31
2023-01-20T21:13:53.197Z,101961.94
2023-01-20T21:16:22.996Z,101964.28
2023-01-20T21:18:51.870Z,101969.44
2023-01-20T21:21:21.870Z,101975.59
2023-01-20T21:23:53.207Z,101968.44
2023-01-20T21:26:20.019Z,101968.31
2023-01-20T21:28:49.110Z,101970.00
2023-01-20T21:31:18.207Z,101972.66
2023-01-20T21:33:49.298Z,101973.47
2023-01-20T21:36:15.846Z,101979.75
2023-01-20T21:38:46.548Z,101983.38
2023-01-20T21:41:14.252Z,101986.16
2023-01-20T21:44:01.456Z,101988.97
2023-01-20T21:46:29.506Z,101985.78
2023-01-20T21:49:14.854Z,101991.19
2023-01-20T21:52:00.147Z,101994.13
2023-01-20T21:54:33.565Z,101999.69
2023-01-20T21:57:01.035Z,101994.56
2023-01-20T21:59:27.901Z,101995.69
2023-01-20T22:01:54.552Z,101995.69
2023-01-20T22:04:21.402Z,102001.94
2023-01-20T22:06:47.977Z,102007.09
2023-01-20T22:09:14.659Z,102008.06
2023-01-20T22:11:41.356Z,102005.28
2023-01-20T22:14:09.406Z,102004.31
2023-01-20T22:16:36.008Z,102010.28
2023-01-20T22:19:02.686Z,102017.13
2023-01-20T22:21:29.659Z,102011.66
2023-01-20T22:23:56.223Z,102021.13
2023-01-20T22:26:22.806Z,102024.50
2023-01-20T22:28:49.379Z,102025.16
2023-01-20T22:31:19.912Z,102034.50
2023-01-20T22:33:51.119Z,102031.03
2023-01-20T22:36:17.723Z,102034.22
2023-01-20T22:38:45.913Z,102036.03
2023-01-20T22:41:12.856Z,102038.66
2023-01-20T22:43:41.089Z,102050.09
2023-01-20T22:46:07.727Z,102043.28
2023-01-20T22:48:34.380Z,102033.69
2023-01-20T22:51:12.650Z,102045.22
2023-01-20T22:53:39.604Z,102048.03
2023-01-20T22:56:08.417Z,102052.63
2023-01-20T22:58:35.103Z,102050.13
2023-01-20T23:01:01.803Z,102055.72
2023-01-20T23:03:28.837Z,102056.53
2023-01-20T23:05:57.922Z,102060.44
2023-01-20T23:08:29.126Z,102052.63
2023-01-20T23:11:07.285Z,102050.28
2023-01-20T23:13:35.182Z,102042.47
2023-01-20T23:16:04.820Z,102051.28
2023-01-20T23:18:32.042Z,102049.31
2023-01-20T23:20:59.470Z,102048.31
2023-01-20T23:23:27.598Z,102049.97
2023-01-20T23:26:10.301Z,102048.03
2023-01-20T23:28:36.848Z,102042.47
2023-01-20T23:31:07.957Z,102042.31
2023-01-20T23:33:34.931Z,102048.16
2023-01-20T23:36:22.670Z,102045.38
2023-01-20T23:38:49.244Z,102051.22
2023-01-20T23:41:16.656Z,102056.38
2023-01-20T23:43:43.260Z,102062.34
2023-01-20T23:46:10.353Z,102064.19
2023-01-20T23:48:37.411Z,102059.84
2023-01-20T23:51:06.341Z,102058.19
2023-01-20T23:53:37.005Z,102061.81
2023-01-20T23:56:05.788Z,102058.44
2023-01-20T23:58:32.744Z,102076.31
